createdAt,value
2022-10-28T00:00:51.514Z,12.03
2022-10-28T00:03:19.687Z,11.71
2022-10-28T00:05:47.199Z,11.74
2022-10-28T00:08:14.701Z,11.60
2022-10-28T00:10:42.198Z,11.50
2022-10-28T00:13:11.033Z,11.84
2022-10-28T00:15:38.549Z,11.92
2022-10-28T00:18:06.131Z,11.80
2022-10-28T00:20:33.682Z,11.81
2022-10-28T00:23:01.181Z,12.07
2022-10-28T00:25:28.678Z,11.96
2022-10-28T00:27:56.378Z,11.83
2022-10-28T00:30:25.441Z,11.98
2022-10-28T00:32:53.727Z,11.75
2022-10-28T00:35:21.564Z,11.70
2022-10-28T00:37:49.036Z,11.76
2022-10-28T00:40:16.730Z,11.71
2022-10-28T00:42:44.216Z,11.71
2022-10-28T00:45:12.468Z,11.65
2022-10-28T00:47:44.531Z,11.57
2022-10-28T00:50:21.604Z,11.64
2022-10-28T00:52:51.741Z,11.58
2022-10-28T00:55:20.533Z,11.81
2022-10-28T00:57:48.403Z,11.95
2022-10-28T01:00:16.764Z,11.87
2022-10-28T01:02:48.428Z,11.98
2022-10-28T01:05:18.596Z,12.01
2022-10-28T01:07:46.246Z,11.87
2022-10-28T01:10:14.779Z,11.88
2022-10-28T01:12:52.559Z,11.87
2022-10-28T01:15:26.143Z,11.84
2022-10-28T01:18:03.651Z,11.84
2022-10-28T01:21:01.859Z,12.06
2022-10-28T01:23:34.497Z,12.26
2022-10-28T01:26:20.949Z,12.06
2022-10-28T01:29:27.070Z,12.19
2022-10-28T01:31:58.742Z,12.07
2022-10-28T01:34:29.145Z,12.24
2022-10-28T01:36:59.552Z,12.23
2022-10-28T01:39:33.027Z,12.34
2022-10-28T01:42:08.625Z,12.25
2022-10-28T01:44:41.336Z,12.22
2022-10-28T01:47:13.172Z,12.16
2022-10-28T01:49:43.274Z,12.19
2022-10-28T01:52:13.496Z,12.21
2022-10-28T01:54:43.044Z,12.27
2022-10-28T01:57:11.654Z,12.29
2022-10-28T01:59:39.697Z,12.37
2022-10-28T02:02:07.264Z,12.21
2022-10-28T02:04:36.155Z,12.30
2022-10-28T02:07:03.720Z,12.31
2022-10-28T02:09:40.432Z,12.37
2022-10-28T02:12:22.363Z,12.41
2022-10-28T02:15:02.677Z,12.27
2022-10-28T02:17:39.638Z,12.37
2022-10-28T02:20:15.441Z,12.30
2022-10-28T02:22:47.539Z,12.31
2022-10-28T02:25:18.419Z,12.44
2022-10-28T02:27:49.772Z,12.56
2022-10-28T02:30:20.446Z,12.43
2022-10-28T02:32:52.350Z,12.48
2022-10-28T02:35:24.092Z,12.42
2022-10-28T02:37:52.402Z,12.72
2022-10-28T02:40:22.488Z,12.76
2022-10-28T02:42:52.975Z,12.80
2022-10-28T02:45:23.816Z,12.79
2022-10-28T02:47:53.866Z,12.74
2022-10-28T02:50:26.224Z,12.66
2022-10-28T02:52:56.830Z,12.67
2022-10-28T02:55:25.204Z,12.81
2022-10-28T02:57:52.925Z,12.90
2022-10-28T03:00:23.072Z,12.74
2022-10-28T03:02:50.603Z,12.71
2022-10-28T03:05:18.673Z,12.65
2022-10-28T03:07:47.555Z,12.62
2022-10-28T03:10:15.207Z,12.77
2022-10-28T03:12:42.706Z,12.66
2022-10-28T03:15:11.070Z,12.69
2022-10-28T03:17:38.611Z,12.67
2022-10-28T03:20:07.178Z,12.72
2022-10-28T03:22:34.862Z,12.77
2022-10-28T03:25:03.868Z,12.79
2022-10-28T03:27:31.392Z,12.77
2022-10-28T03:29:58.844Z,12.63
2022-10-28T03:32:26.387Z,12.63
2022-10-28T03:34:53.902Z,12.63
2022-10-28T03:37:21.441Z,12.71
2022-10-28T03:39:48.918Z,12.82
2022-10-28T03:42:17.753Z,12.90
2022-10-28T03:44:45.281Z,12.89
2022-10-28T03:47:12.836Z,13.00
2022-10-28T03:49:40.348Z,13.17
2022-10-28T03:52:07.842Z,13.20
2022-10-28T03:54:35.400Z,13.17
2022-10-28T03:57:02.954Z,13.29
2022-10-28T03:59:31.813Z,13.17
2022-10-28T04:01:59.518Z,13.14
2022-10-28T04:04:29.936Z,13.17
2022-10-28T04:06:58.465Z,13.18
2022-10-28T04:09:25.969Z,13.17
2022-10-28T04:11:53.502Z,13.23
2022-10-28T04:14:21.074Z,13.26
2022-10-28T04:16:49.946Z,13.18
2022-10-28T04:19:17.413Z,13.21
2022-10-28T04:21:44.898Z,13.24
2022-10-28T04:24:12.529Z,13.23
2022-10-28T04:26:40.105Z,13.13
2022-10-28T04:29:07.682Z,13.15
2022-10-28T04:31:35.200Z,13.19
2022-10-28T04:34:04.031Z,13.23
2022-10-28T04:36:31.571Z,13.19
2022-10-28T04:38:59.082Z,13.23
2022-10-28T04:41:26.586Z,13.17
2022-10-28T04:43:55.988Z,13.12
2022-10-28T04:46:23.551Z,13.04
2022-10-28T04:48:51.037Z,13.02
2022-10-28T04:51:19.966Z,13.06
2022-10-28T04:53:47.432Z,13.10
2022-10-28T04:56:14.922Z,13.16
2022-10-28T04:58:42.509Z,12.99
2022-10-28T05:01:14.958Z,12.88
2022-10-28T05:03:42.588Z,12.75
2022-10-28T05:06:10.028Z,12.75
2022-10-28T05:08:38.856Z,12.83
2022-10-28T05:11:06.593Z,12.85
2022-10-28T05:13:34.077Z,12.89
2022-10-28T05:16:01.534Z,12.94
2022-10-28T05:18:28.985Z,12.82
2022-10-28T05:20:56.843Z,12.92
2022-10-28T05:23:27.154Z,12.84
2022-10-28T05:25:57.415Z,12.83
2022-10-28T05:28:24.876Z,12.86
2022-10-28T05:30:52.345Z,12.68
2022-10-28T05:33:19.864Z,12.54
2022-10-28T05:35:47.527Z,12.51
2022-10-28T05:38:15.264Z,12.61
2022-10-28T05:40:43.224Z,12.58
2022-10-28T05:43:12.110Z,12.59
2022-10-28T05:45:39.629Z,12.56
2022-10-28T05:48:07.869Z,12.66
2022-10-28T05:50:35.350Z,12.67
2022-10-28T05:53:02.876Z,12.63
2022-10-28T05:55:31.503Z,12.52
2022-10-28T05:57:58.996Z,12.52
2022-10-28T06:00:28.064Z,12.58
2022-10-28T06:03:03.857Z,12.42
2022-10-28T06:05:31.306Z,12.56
2022-10-28T06:07:58.788Z,12.56
2022-10-28T06:10:26.289Z,12.49
2022-10-28T06:12:54.668Z,12.60
2022-10-28T06:15:22.433Z,12.48
2022-10-28T06:17:51.277Z,12.62
2022-10-28T06:20:19.083Z,12.50
2022-10-28T06:22:47.608Z,12.52
2022-10-28T06:25:15.280Z,12.62
2022-10-28T06:27:42.757Z,12.58
2022-10-28T06:30:11.222Z,12.56
2022-10-28T06:32:38.700Z,12.54
2022-10-28T06:35:08.030Z,12.58
2022-10-28T06:37:35.539Z,12.56
2022-10-28T06:40:03.731Z,12.55
2022-10-28T06:42:31.203Z,12.60
2022-10-28T06:44:58.748Z,12.54
2022-10-28T06:47:27.750Z,12.61
2022-10-28T06:49:55.204Z,12.61
2022-10-28T06:52:24.009Z,12.69
2022-10-28T06:54:51.609Z,12.73
2022-10-28T06:57:19.087Z,12.72
2022-10-28T06:59:46.585Z,12.74
2022-10-28T07:02:14.210Z,12.82
2022-10-28T07:04:42.136Z,12.82
2022-10-28T07:07:09.646Z,12.85
2022-10-28T07:09:39.518Z,12.87
2022-10-28T07:12:08.283Z,12.94
2022-10-28T07:14:35.833Z,13.09
2022-10-28T07:17:03.516Z,13.05
2022-10-28T07:19:30.993Z,13.06
2022-10-28T07:21:58.521Z,13.06
2022-10-28T07:26:59.878Z,13.20
2022-10-28T07:29:27.564Z,13.32
2022-10-28T07:31:55.733Z,13.40
2022-10-28T07:34:26.936Z,13.41
2022-10-28T07:36:55.887Z,13.43
2022-10-28T07:39:23.610Z,13.55
2022-10-28T07:41:51.203Z,13.62
2022-10-28T07:44:20.049Z,13.59
2022-10-28T07:46:47.546Z,13.67
2022-10-28T07:49:15.072Z,13.67
2022-10-28T07:51:42.699Z,13.79
2022-10-28T07:54:10.257Z,13.89
2022-10-28T07:56:37.749Z,13.92
2022-10-28T07:59:05.260Z,13.98
2022-10-28T08:01:34.144Z,14.00
2022-10-28T08:04:01.676Z,14.03
2022-10-28T08:06:29.203Z,14.08
2022-10-28T08:08:57.608Z,14.11
2022-10-28T08:11:26.782Z,14.20
2022-10-28T08:13:55.199Z,14.22
2022-10-28T08:16:22.722Z,14.35
2022-10-28T08:18:53.053Z,14.43
2022-10-28T08:21:22.274Z,14.50
2022-10-28T08:23:49.850Z,14.61
2022-10-28T08:26:18.063Z,14.72
2022-10-28T08:28:45.665Z,14.78
2022-10-28T08:31:13.150Z,14.85
2022-10-28T08:33:42.540Z,14.93
2022-10-28T08:36:13.150Z,14.99
2022-10-28T08:38:45.291Z,15.08
2022-10-28T08:41:32.424Z,15.15
2022-10-28T08:44:08.898Z,15.18
2022-10-28T08:46:48.588Z,15.22
2022-10-28T08:49:19.834Z,15.33
2022-10-28T08:51:52.136Z,15.37
2022-10-28T08:54:23.917Z,15.46
2022-10-28T08:56:54.884Z,15.51
2022-10-28T08:59:25.313Z,15.64
2022-10-28T09:04:31.484Z,15.73
2022-10-28T09:07:00.364Z,15.79
2022-10-28T09:09:27.966Z,15.83
2022-10-28T09:12:07.863Z,15.92
2022-10-28T09:14:48.749Z,16.02
2022-10-28T09:17:20.075Z,16.05
2022-10-28T09:19:50.851Z,16.13
2022-10-28T09:22:29.538Z,16.21
2022-10-28T09:24:59.518Z,16.29
2022-10-28T09:27:45.052Z,16.37
2022-10-28T09:30:27.228Z,16.46
2022-10-28T09:33:03.873Z,16.58
2022-10-28T09:35:33.275Z,16.58
2022-10-28T09:38:08.816Z,16.74
2022-10-28T09:40:38.022Z,16.85
2022-10-28T09:43:09.282Z,16.89
2022-10-28T09:45:38.769Z,16.94
2022-10-28T09:48:10.412Z,17.14
2022-10-28T09:50:37.898Z,17.10
2022-10-28T09:53:12.320Z,17.12
2022-10-28T09:55:39.817Z,17.27
2022-10-28T09:58:07.366Z,17.30
2022-10-28T10:00:34.991Z,17.37
2022-10-28T10:03:02.615Z,17.59
2022-10-28T10:05:32.324Z,17.69
2022-10-28T10:08:02.771Z,17.76
2022-10-28T10:10:34.834Z,17.82
2022-10-28T10:13:04.674Z,17.85
2022-10-28T10:15:34.321Z,17.85
2022-10-28T10:18:03.698Z,17.96
2022-10-28T10:20:47.609Z,18.04
2022-10-28T10:23:24.509Z,18.03
2022-10-28T10:25:58.690Z,18.02
2022-10-28T10:28:27.595Z,18.05
2022-10-28T10:30:57.075Z,18.08
2022-10-28T10:33:26.522Z,18.16
2022-10-28T10:35:59.761Z,18.14
2022-10-28T10:38:28.462Z,18.18
2022-10-28T10:40:57.546Z,18.20
2022-10-28T10:43:31.377Z,18.26
2022-10-28T10:46:04.794Z,18.29
2022-10-28T10:48:35.947Z,18.27
2022-10-28T10:51:06.837Z,18.34
2022-10-28T10:53:35.161Z,18.38
2022-10-28T10:56:06.003Z,18.38
2022-10-28T10:58:36.110Z,18.47
2022-10-28T11:01:05.877Z,18.48
2022-10-28T11:03:36.649Z,18.49
2022-10-28T11:06:22.632Z,18.53
2022-10-28T11:08:56.119Z,18.56
2022-10-28T11:11:33.387Z,18.62
2022-10-28T11:14:06.982Z,18.72
2022-10-28T11:16:34.440Z,18.83
2022-10-28T11:19:19.204Z,18.91
2022-10-28T11:21:54.564Z,19.02
2022-10-28T11:24:32.799Z,19.04
2022-10-28T11:27:07.400Z,19.13
2022-10-28T11:29:35.058Z,19.21
2022-10-28T11:32:20.494Z,19.19
2022-10-28T11:35:00.318Z,19.32
2022-10-28T11:37:38.013Z,19.38
2022-10-28T11:40:14.315Z,19.41
2022-10-28T11:42:50.897Z,19.42
2022-10-28T11:45:23.829Z,19.47
2022-10-28T11:48:06.279Z,19.50
2022-10-28T11:50:44.121Z,19.56
2022-10-28T11:53:31.587Z,19.61
2022-10-28T11:56:05.416Z,19.74
2022-10-28T11:58:42.219Z,19.71
2022-10-28T12:01:22.042Z,19.79
2022-10-28T12:04:19.578Z,19.78
2022-10-28T12:07:11.448Z,19.77
2022-10-28T12:09:50.070Z,19.78
2022-10-28T12:12:23.482Z,19.82
2022-10-28T12:15:01.064Z,19.91
2022-10-28T12:17:34.993Z,19.94
2022-10-28T12:20:04.682Z,19.95
2022-10-28T12:22:34.923Z,20.10
2022-10-28T12:25:04.541Z,20.07
2022-10-28T12:27:35.168Z,20.08
2022-10-28T12:30:08.356Z,20.07
2022-10-28T12:32:37.350Z,20.18
2022-10-28T12:35:07.540Z,20.17
2022-10-28T12:37:38.069Z,20.11
2022-10-28T12:40:09.188Z,20.08
2022-10-28T12:42:38.206Z,20.16
2022-10-28T12:45:12.636Z,20.18
2022-10-28T12:47:43.844Z,20.19
2022-10-28T12:50:18.652Z,20.24
2022-10-28T12:52:50.636Z,20.15
2022-10-28T12:55:25.187Z,20.20
2022-10-28T12:57:55.952Z,20.26
2022-10-28T13:00:27.970Z,20.31
2022-10-28T13:03:01.711Z,20.32
2022-10-28T13:05:35.513Z,20.29
2022-10-28T13:08:33.031Z,20.33
2022-10-28T13:11:35.755Z,20.39
2022-10-28T13:14:07.141Z,20.47
2022-10-28T13:16:46.659Z,20.46
2022-10-28T13:19:29.847Z,20.42
2022-10-28T13:22:11.789Z,20.44
2022-10-28T13:24:43.515Z,20.49
2022-10-28T13:27:13.650Z,20.48
2022-10-28T13:29:42.888Z,20.51
2022-10-28T13:32:35.626Z,20.52
2022-10-28T13:35:14.030Z,20.64
2022-10-28T13:37:41.888Z,20.72
2022-10-28T13:40:22.135Z,20.80
2022-10-28T13:42:50.658Z,20.86
2022-10-28T13:45:48.138Z,20.87
2022-10-28T13:48:50.075Z,20.92
2022-10-28T13:51:46.364Z,20.99
2022-10-28T13:54:25.957Z,20.94
2022-10-28T13:56:54.003Z,20.90
2022-10-28T13:59:39.779Z,20.93
2022-10-28T14:02:34.393Z,20.91
2022-10-28T14:05:07.255Z,20.91
2022-10-28T14:07:35.975Z,20.98
2022-10-28T14:10:24.478Z,21.04
2022-10-28T14:12:55.172Z,21.21
2022-10-28T14:15:28.198Z,21.25
2022-10-28T14:18:09.775Z,21.25
2022-10-28T14:20:58.751Z,21.29
2022-10-28T14:24:01.611Z,21.27
2022-10-28T14:26:29.150Z,21.32
2022-10-28T14:28:56.794Z,21.34
2022-10-28T14:31:41.778Z,21.29
2022-10-28T14:34:38.362Z,21.34
2022-10-28T14:37:25.809Z,21.36
2022-10-28T14:40:10.312Z,21.20
2022-10-28T14:42:52.741Z,21.18
2022-10-28T14:45:27.672Z,21.19
2022-10-28T14:48:17.976Z,21.10
2022-10-28T14:54:13.304Z,20.81
2022-10-28T14:56:41.383Z,20.68
2022-10-28T14:59:22.839Z,20.68
2022-10-28T15:02:00.363Z,20.64
2022-10-28T15:04:29.108Z,20.70
2022-10-28T15:06:57.071Z,20.62
2022-10-28T15:09:28.870Z,20.54
2022-10-28T15:11:59.026Z,20.51
2022-10-28T15:14:38.182Z,20.47
2022-10-28T15:17:13.964Z,20.44
2022-10-28T15:19:41.971Z,20.38
2022-10-28T15:22:26.065Z,20.30
2022-10-28T15:24:57.385Z,20.21
2022-10-28T15:27:28.252Z,20.17
2022-10-28T15:29:56.791Z,20.11
2022-10-28T15:32:32.698Z,20.14
2022-10-28T15:35:01.160Z,20.05
2022-10-28T15:37:30.730Z,19.96
2022-10-28T15:40:21.922Z,19.96
2022-10-28T15:42:54.907Z,20.03
2022-10-28T15:45:25.745Z,19.85
2022-10-28T15:47:54.156Z,19.80
2022-10-28T15:50:27.168Z,19.72
2022-10-28T15:52:57.486Z,19.70
2022-10-28T15:55:41.509Z,19.64
2022-10-28T15:58:33.214Z,19.59
2022-10-28T16:01:00.806Z,19.50
2022-10-28T16:06:02.472Z,19.35
2022-10-28T16:08:31.629Z,19.22
2022-10-28T16:11:03.219Z,19.06
2022-10-28T16:13:33.608Z,18.90
2022-10-28T16:16:04.746Z,18.81
2022-10-28T16:18:34.735Z,18.68
2022-10-28T16:21:02.874Z,18.57
2022-10-28T16:23:35.053Z,18.51
2022-10-28T16:26:04.228Z,18.43
2022-10-28T16:28:32.355Z,18.33
2022-10-28T16:31:01.473Z,18.23
2022-10-28T16:33:31.413Z,18.22
2022-10-28T16:36:03.293Z,18.09
2022-10-28T16:38:31.197Z,17.96
2022-10-28T16:40:59.449Z,17.95
2022-10-28T16:43:30.071Z,17.88
2022-10-28T16:46:00.259Z,17.85
2022-10-28T16:48:29.656Z,17.77
2022-10-28T16:50:59.255Z,17.60
2022-10-28T16:53:27.145Z,17.53
2022-10-28T16:55:58.983Z,17.44
2022-10-28T16:58:28.264Z,17.43
2022-10-28T17:00:56.317Z,17.36
2022-10-28T17:03:24.040Z,17.33
2022-10-28T17:05:51.901Z,17.29
2022-10-28T17:08:36.144Z,17.23
2022-10-28T17:11:07.610Z,17.23
2022-10-28T17:13:36.771Z,17.22
2022-10-28T17:16:04.573Z,17.11
2022-10-28T17:18:32.194Z,17.04
2022-10-28T17:21:01.355Z,16.96
2022-10-28T17:23:29.142Z,16.90
2022-10-28T17:25:57.949Z,16.90
2022-10-28T17:28:25.861Z,16.78
2022-10-28T17:30:55.387Z,16.65
2022-10-28T17:33:22.983Z,16.69
2022-10-28T17:35:50.567Z,16.62
2022-10-28T17:38:18.298Z,16.55
2022-10-28T17:40:45.997Z,16.47
2022-10-28T17:43:13.593Z,16.44
2022-10-28T17:45:41.196Z,16.39
2022-10-28T17:48:10.853Z,16.37
2022-10-28T17:50:38.337Z,16.30
2022-10-28T17:53:05.833Z,16.29
2022-10-28T17:55:33.364Z,16.15
2022-10-28T17:58:00.977Z,16.12
2022-10-28T18:00:28.636Z,16.15
2022-10-28T18:02:56.386Z,16.10
2022-10-28T18:05:25.460Z,16.08
2022-10-28T18:07:55.275Z,15.97
2022-10-28T18:10:23.054Z,15.98
2022-10-28T18:12:51.044Z,15.91
2022-10-28T18:15:18.857Z,15.89
2022-10-28T18:17:50.208Z,15.84
2022-10-28T18:20:18.413Z,15.80
2022-10-28T18:22:47.420Z,15.75
2022-10-28T18:25:17.108Z,15.72
2022-10-28T18:27:44.849Z,15.71
2022-10-28T18:30:13.046Z,15.71
2022-10-28T18:32:40.707Z,15.62
2022-10-28T18:35:08.933Z,15.59
2022-10-28T18:37:36.710Z,15.54
2022-10-28T18:40:07.180Z,15.52
2022-10-28T18:42:34.987Z,15.51
2022-10-28T18:45:02.753Z,15.51
2022-10-28T18:47:32.458Z,15.55
2022-10-28T18:50:00.260Z,15.56
2022-10-28T18:52:28.061Z,15.59
2022-10-28T18:54:55.833Z,15.56
2022-10-28T18:57:24.935Z,15.61
2022-10-28T19:00:22.144Z,15.56
2022-10-28T19:02:46.328Z,15.46
2022-10-28T19:05:15.427Z,15.53
2022-10-28T19:07:43.118Z,15.57
2022-10-28T19:10:11.162Z,15.51
2022-10-28T19:12:44.129Z,15.53
2022-10-28T19:15:15.330Z,15.51
2022-10-28T19:17:43.344Z,15.49
2022-10-28T19:20:12.183Z,15.46
2022-10-28T19:22:39.897Z,15.46
2022-10-28T19:25:08.346Z,15.47
2022-10-28T19:27:35.950Z,15.45
2022-10-28T19:30:09.114Z,15.41
2022-10-28T19:32:40.204Z,15.44
2022-10-28T19:35:08.665Z,15.44
2022-10-28T19:37:36.349Z,15.48
2022-10-28T19:40:04.549Z,15.48
2022-10-28T19:42:32.475Z,15.44
2022-10-28T19:45:00.853Z,15.47
2022-10-28T19:47:30.171Z,15.45
2022-10-28T19:49:58.541Z,15.40
2022-10-28T19:52:26.425Z,15.31
2022-10-28T19:54:54.234Z,15.39
2022-10-28T19:57:21.991Z,15.39
2022-10-28T19:59:49.855Z,15.40
2022-10-28T20:02:17.606Z,15.44
2022-10-28T20:04:48.541Z,15.39
2022-10-28T20:07:16.242Z,15.39
2022-10-28T20:09:43.899Z,15.34
2022-10-28T20:12:11.570Z,15.42
2022-10-28T20:14:39.161Z,15.30
2022-10-28T20:17:07.138Z,15.33
2022-10-28T20:19:34.853Z,15.32
2022-10-28T20:22:03.979Z,15.28
2022-10-28T20:24:31.736Z,15.29
2022-10-28T20:26:59.731Z,15.27
2022-10-28T20:29:27.409Z,15.33
2022-10-28T20:31:55.281Z,15.23
2022-10-28T20:34:23.483Z,15.21
2022-10-28T20:36:51.069Z,15.13
2022-10-28T20:39:23.413Z,15.14
2022-10-28T20:41:51.414Z,15.15
2022-10-28T20:44:19.328Z,15.19
2022-10-28T20:46:48.009Z,15.23
2022-10-28T20:49:15.956Z,15.19
2022-10-28T20:51:48.333Z,15.13
2022-10-28T20:54:15.972Z,15.03
2022-10-28T20:56:45.054Z,14.94
2022-10-28T20:59:12.956Z,14.91
2022-10-28T21:01:42.679Z,14.93
2022-10-28T21:04:11.667Z,14.95
2022-10-28T21:06:39.874Z,14.95
2022-10-28T21:09:08.767Z,14.94
2022-10-28T21:11:36.420Z,14.99
2022-10-28T21:14:07.498Z,14.91
2022-10-28T21:16:35.207Z,14.87
2022-10-28T21:19:03.004Z,14.86
2022-10-28T21:21:31.186Z,14.85
2022-10-28T21:23:58.867Z,14.84
2022-10-28T21:26:27.342Z,14.84
2022-10-28T21:28:56.282Z,14.86
2022-10-28T21:31:25.792Z,14.73
2022-10-28T21:33:53.991Z,14.74
2022-10-28T21:36:22.443Z,14.72
2022-10-28T21:38:54.002Z,14.69
2022-10-28T21:41:22.341Z,14.78
2022-10-28T21:43:51.628Z,15.04
2022-10-28T21:46:21.037Z,15.33
2022-10-28T21:48:53.713Z,15.34
2022-10-28T21:51:21.524Z,15.34
2022-10-28T21:53:49.813Z,15.22
2022-10-28T21:56:19.577Z,15.01
2022-10-28T21:58:49.067Z,15.01
2022-10-28T22:01:18.815Z,15.00
2022-10-28T22:03:46.875Z,14.97
2022-10-28T22:06:16.092Z,15.04
2022-10-28T22:08:43.763Z,15.00
2022-10-28T22:11:14.356Z,15.05
2022-10-28T22:13:42.357Z,15.06
2022-10-28T22:16:12.602Z,15.03
2022-10-28T22:18:40.572Z,14.99
2022-10-28T22:21:11.121Z,15.03
2022-10-28T22:23:40.435Z,15.00
2022-10-28T22:26:09.527Z,15.01
2022-10-28T22:28:37.305Z,15.03
2022-10-28T22:31:06.404Z,15.01
2022-10-28T22:33:34.336Z,14.97
2022-10-28T22:36:03.427Z,14.94
2022-10-28T22:38:31.243Z,15.00
2022-10-28T22:41:04.768Z,15.09
2022-10-28T22:43:32.455Z,15.10
2022-10-28T22:46:00.492Z,15.07
2022-10-28T22:48:28.477Z,14.97
2022-10-28T22:50:56.107Z,14.88
2022-10-28T22:53:26.669Z,14.84
2022-10-28T22:55:54.688Z,14.74
2022-10-28T22:58:24.745Z,14.70
2022-10-28T23:00:52.454Z,14.74
2022-10-28T23:03:20.214Z,14.77
2022-10-28T23:05:47.759Z,14.73
2022-10-28T23:08:16.647Z,14.71
2022-10-28T23:10:44.317Z,14.60
2022-10-28T23:13:13.449Z,14.57
2022-10-28T23:15:42.358Z,14.65
2022-10-28T23:18:10.058Z,14.66
2022-10-28T23:20:37.810Z,14.65
2022-10-28T23:23:05.477Z,14.54
2022-10-28T23:25:33.146Z,14.51
2022-10-28T23:28:00.763Z,14.41
2022-10-28T23:30:28.396Z,14.31
2022-10-28T23:32:59.121Z,14.27
2022-10-28T23:35:26.716Z,14.02
2022-10-28T23:37:54.553Z,13.95
2022-10-28T23:40:22.373Z,14.13
2022-10-28T23:42:50.046Z,14.26
2022-10-28T23:45:17.715Z,14.30
2022-10-28T23:47:45.244Z,14.34
2022-10-28T23:50:14.960Z,14.34
2022-10-28T23:52:42.614Z,14.34
2022-10-28T23:55:10.544Z,14.32
2022-10-28T23:57:38.147Z,14.37
